PORT of TEMA

Country: Ghana Country: Ghana [GH]
Latitude / Longitude: 5.63285° / 0.0127° Show on Map
Local Time:  [UTC 0]
UN/LOCODE: GHTEM
Vessels in Port: 25
Expected Arrivals: 16

Recent Arrivals & Departures


Vessel's Name
Arrival (UTC)
Arrival (LT)
Departure (UTC)
Departure (LT)
Vessel Type: Fishing  LU RONG YUAN YU 910 2014-08-23 17:42:00 2014-08-23 17:42:00
Vessel Type: Cargo Vessels  CHARLOTTE SCHULTE 2014-08-23 16:52:00 2014-08-23 16:52:00
Vessel Type: Cargo Vessels  IRENES RAINBOW 2014-08-22 13:38:00 2014-08-22 13:38:00 2014-08-23 16:09:00 2014-08-23 16:09:00
Vessel Type: Fishing  MAACHE 2 2014-08-23 15:07:00 2014-08-23 15:07:00
Vessel Type: Fishing  MAACHE 2 2014-08-22 13:22:00 2014-08-22 13:22:00 2014-08-23 15:01:00 2014-08-23 15:01:00
Vessel Type: Fishing  EMULE 2 2014-08-23 14:01:00 2014-08-23 14:01:00
Vessel Type: Tugs, Pilots etc  VICE ADMIRAL OWUSU ANSAH 2014-08-23 08:22:00 2014-08-23 08:22:00
Vessel Type: Cargo Vessels  GISELE A 2014-08-23 08:21:00 2014-08-23 08:21:00
Vessel Type: Tugs, Pilots etc  VICE ADMIRAL OWUSU ANSAH 2014-08-22 13:38:00 2014-08-22 13:38:00 2014-08-23 08:19:00 2014-08-23 08:19:00
Vessel Type: Cargo Vessels  WEHR WARNOW 2014-08-22 16:11:00 2014-08-22 16:11:00 2014-08-23 07:58:00 2014-08-23 07:58:00

Expected Arrivals


Vessel's Name
Scheduled Arrival (UTC)
Scheduled Arrival (LT)
Estimated Arrival (UTC)
Estimated Arrival (LT)
Vessel Type: Tankers  SILVER FREYA 2014-08-22 08:00:00 2014-08-22 08:00:00
Vessel Type: Cargo Vessels  HANSA MARBURG 2014-08-22 09:00:00 2014-08-22 09:00:00
Vessel Type: Cargo Vessels  GRANDE ARGENTINA 2014-08-23 00:30:00 2014-08-23 00:30:00 2014-08-23 00:19:00 2014-08-23 00:19:00
CHARLOTTE SCHULTE 2014-08-23 06:00:00 2014-08-23 06:00:00 2014-08-23 16:19:00 2014-08-23 16:19:00
Vessel Type: Cargo Vessels  MAERSK PHUKET 2014-08-23 10:00:00 2014-08-23 10:00:00 2014-08-23 20:03:00 2014-08-23 20:03:00
JABAL ALI 5 2014-08-24 00:00:00 2014-08-24 00:00:00 2014-08-24 08:09:00 2014-08-24 08:09:00
Vessel Type: Cargo Vessels  LADY ROSEBAY 2014-08-24 04:00:00 2014-08-24 04:00:00 2014-08-24 00:52:00 2014-08-24 00:52:00
RED OAK 2014-08-24 12:00:00 2014-08-24 12:00:00 2014-08-24 14:48:00 2014-08-24 14:48:00
Vessel Type: Cargo Vessels  COSCO YINGKOU 2014-08-24 19:00:00 2014-08-24 19:00:00 2014-08-23 05:31:00 2014-08-23 05:31:00
Vessel Type: Cargo Vessels  SIERRA LOBA 2014-08-25 08:00:00 2014-08-25 08:00:00 2014-08-24 21:17:00 2014-08-24 21:17:00

Wind Forecast


    
Time (UTC)
Speed
Direction
Temperature
2014-08-23 18:00:00 10 knots 214° 25°C
2014-08-23 21:00:00 10 knots 224° 24°C
2014-08-24 00:00:00 10 knots 225° 24°C
2014-08-24 03:00:00 9 knots 233° 24°C
2014-08-24 06:00:00 9 knots 243° 24°C
2014-08-24 09:00:00 9 knots 232° 25°C
2014-08-24 12:00:00 11 knots 210° 26°C
2014-08-24 15:00:00 16 knots 194° 25°C
2014-08-24 18:00:00 14 knots 201° 24°C
2014-08-24 21:00:00 12 knots 221° 24°C
2014-08-25 00:00:00 13 knots 233° 24°C
2014-08-25 03:00:00 12 knots 239° 24°C
2014-08-25 06:00:00 12 knots 253° 24°C
2014-08-25 09:00:00 11 knots 243° 25°C
2014-08-25 12:00:00 14 knots 215° 26°C
2014-08-25 15:00:00 17 knots 204° 26°C
2014-08-25 18:00:00 16 knots 215° 25°C

NO_PHOTO

No Photos for this port. Be the first to upload one!